www.cux-wetter.de
Wetterdaten: Freitag, 27.08.2010
Datum Zeit Temp. A. Feuchte A. Luftdruck Regen Wind Richtung Richtung Sonnenschein Solar Taupunkt Windchill Windben
27.08.2010 00:02 15,6 C 75 % 1003,5 hPa 0,0 l/m 15,6 km/h (3 Bft) O 80 0 min 0 W/m 11,2 C 11,7 C 15,6 km/h (3 Bft)
27.08.2010 00:06 15,6 C 75 % 1003,5 hPa 0,0 l/m 7,4 km/h (2 Bft) NO 35 0 min 0 W/m 11,2 C 15,1 C 7,4 km/h (2 Bft)
27.08.2010 00:11 15,6 C 75 % 1003,5 hPa 0,0 l/m 15,3 km/h (3 Bft) NO 35 0 min 0 W/m 11,2 C 11,8 C 15,3 km/h (3 Bft)
27.08.2010 00:16 15,6 C 76 % 1003,5 hPa 0,0 l/m 9,9 km/h (2 Bft) N-NO 15 0 min 0 W/m 11,4 C 13,8 C 9,9 km/h (2 Bft)
27.08.2010 00:22 15,5 C 76 % 1003,5 hPa 0,0 l/m 11,3 km/h (2 Bft) N-NO 30 0 min 0 W/m 11,3 C 13,1 C 11,3 km/h (2 Bft)
27.08.2010 00:27 15,5 C 77 % 1003,5 hPa 0,0 l/m 10,7 km/h (2 Bft) O-NO 70 0 min 0 W/m 11,5 C 13,4 C 10,7 km/h (2 Bft)
27.08.2010 00:31 15,5 C 77 % 1002,5 hPa 0,0 l/m 10,0 km/h (2 Bft) O-NO 70 0 min 0 W/m 11,5 C 13,7 C 10,0 km/h (2 Bft)
27.08.2010 00:36 15,5 C 78 % 1002,5 hPa 0,0 l/m 16,0 km/h (3 Bft) NO 40 0 min 0 W/m 11,7 C 11,5 C 16,0 km/h (3 Bft)
27.08.2010 00:41 15,5 C 78 % 1002,5 hPa 0,0 l/m 11,3 km/h (2 Bft) NO 45 0 min 0 W/m 11,7 C 13,1 C 11,3 km/h (2 Bft)
27.08.2010 00:46 15,5 C 79 % 1002,5 hPa 0,0 l/m 10,8 km/h (2 Bft) O-NO 60 0 min 0 W/m 11,9 C 13,3 C 10,8 km/h (2 Bft)
27.08.2010 00:51 15,5 C 79 % 1002,5 hPa 0,0 l/m 13,3 km/h (3 Bft) O-NO 75 0 min 0 W/m 11,9 C 12,4 C 13,3 km/h (3 Bft)
27.08.2010 00:56 15,5 C 79 % 1002,5 hPa 0,0 l/m 11,8 km/h (2 Bft) NO 40 0 min 0 W/m 11,9 C 12,9 C 11,8 km/h (2 Bft)
27.08.2010 01:01 15,5 C 79 % 1002,5 hPa 0,0 l/m 10,1 km/h (2 Bft) NO 35 0 min 0 W/m 11,9 C 13,6 C 10,1 km/h (2 Bft)
27.08.2010 01:06 15,5 C 80 % 1002,5 hPa 0,0 l/m 7,4 km/h (2 Bft) O 85 0 min 0 W/m 12,1 C 14,9 C 7,4 km/h (2 Bft)
27.08.2010 01:11 15,5 C 80 % 1002,5 hPa 0,0 l/m 9,4 km/h (2 Bft) O-NO 70 0 min 0 W/m 12,1 C 13,9 C 9,4 km/h (2 Bft)
27.08.2010 01:16 15,5 C 80 % 1002,5 hPa 0,0 l/m 7,2 km/h (2 Bft) O 90 0 min 0 W/m 12,1 C 15,1 C 7,2 km/h (2 Bft)
27.08.2010 01:21 15,5 C 80 % 1002,5 hPa 0,0 l/m 9,8 km/h (2 Bft) O-SO 120 0 min 0 W/m 12,1 C 13,8 C 9,8 km/h (2 Bft)
27.08.2010 01:26 15,5 C 81 % 1002,5 hPa 0,0 l/m 11,2 km/h (2 Bft) O 80 0 min 0 W/m 12,3 C 13,2 C 11,2 km/h (2 Bft)
27.08.2010 01:32 15,5 C 81 % 1002,5 hPa 0,0 l/m 12,2 km/h (2 Bft) O-NO 60 0 min 0 W/m 12,3 C 12,8 C 12,2 km/h (2 Bft)
27.08.2010 01:37 15,5 C 81 % 1002,5 hPa 0,0 l/m 9,4 km/h (2 Bft) O 90 0 min 0 W/m 12,3 C 13,9 C 9,4 km/h (2 Bft)
27.08.2010 01:41 15,6 C 81 % 1002,5 hPa 0,0 l/m 12,6 km/h (3 Bft) O 80 0 min 0 W/m 12,3 C 12,7 C 12,6 km/h (3 Bft)
27.08.2010 01:46 15,6 C 81 % 1002,5 hPa 0,0 l/m 10,3 km/h (2 Bft) O 85 0 min 0 W/m 12,3 C 13,7 C 10,3 km/h (2 Bft)
27.08.2010 01:51 15,6 C 81 % 1002,5 hPa 0,0 l/m 8,5 km/h (2 Bft) O-SO 115 0 min 0 W/m 12,3 C 14,5 C 8,5 km/h (2 Bft)
27.08.2010 01:56 15,6 C 81 % 1002,5 hPa 0,0 l/m 10,6 km/h (2 Bft) O 95 0 min 0 W/m 12,3 C 13,5 C 10,6 km/h (2 Bft)
27.08.2010 02:01 15,6 C 82 % 1002,5 hPa 0,0 l/m 7,8 km/h (2 Bft) S-SO 155 0 min 0 W/m 12,5 C 14,8 C 7,8 km/h (2 Bft)
27.08.2010 02:06 15,6 C 81 % 1002,5 hPa 0,0 l/m 8,7 km/h (2 Bft) O-SO 120 0 min 0 W/m 12,3 C 14,4 C 8,7 km/h (2 Bft)
27.08.2010 02:11 15,6 C 81 % 1001,5 hPa 0,0 l/m 12,2 km/h (2 Bft) O 95 0 min 0 W/m 12,3 C 12,9 C 12,2 km/h (2 Bft)
27.08.2010 02:16 15,5 C 81 % 1001,5 hPa 0,0 l/m 13,0 km/h (3 Bft) O 95 0 min 0 W/m 12,3 C 12,5 C 13,0 km/h (3 Bft)
27.08.2010 02:21 15,6 C 81 % 1001,5 hPa 0,0 l/m 13,3 km/h (3 Bft) O-NO 65 0 min 0 W/m 12,3 C 12,5 C 13,3 km/h (3 Bft)
27.08.2010 02:26 15,6 C 81 % 1001,5 hPa 0,0 l/m 15,3 km/h (3 Bft) SO 130 0 min 0 W/m 12,3 C 11,8 C 15,3 km/h (3 Bft)
27.08.2010 02:31 15,5 C 80 % 1001,5 hPa 0,0 l/m 13,9 km/h (3 Bft) O-NO 75 0 min 0 W/m 12,1 C 12,2 C 13,9 km/h (3 Bft)
27.08.2010 02:36 15,6 C 80 % 1001,5 hPa 0,0 l/m 9,0 km/h (2 Bft) O-NO 70 0 min 0 W/m 12,2 C 14,2 C 9,0 km/h (2 Bft)
27.08.2010 02:42 15,6 C 80 % 1001,5 hPa 0,0 l/m 10,0 km/h (2 Bft) O 95 0 min 0 W/m 12,2 C 13,8 C 10,0 km/h (2 Bft)
27.08.2010 02:47 15,6 C 80 % 1001,5 hPa 0,0 l/m 10,4 km/h (2 Bft) NO 50 0 min 0 W/m 12,2 C 13,6 C 10,4 km/h (2 Bft)
27.08.2010 02:51 15,5 C 80 % 1001,5 hPa 0,0 l/m 6,3 km/h (2 Bft) N 5 0 min 0 W/m 12,1 C 15,5 C 6,3 km/h (2 Bft)
27.08.2010 02:56 15,6 C 80 % 1001,5 hPa 0,0 l/m 10,6 km/h (2 Bft) NO 45 0 min 0 W/m 12,2 C 13,5 C 10,6 km/h (2 Bft)
27.08.2010 03:01 15,6 C 80 % 1001,5 hPa 0,0 l/m 7,9 km/h (2 Bft) NO 40 0 min 0 W/m 12,2 C 14,8 C 7,9 km/h (2 Bft)
27.08.2010 03:06 15,6 C 80 % 1001,5 hPa 0,0 l/m 9,8 km/h (2 Bft) O 85 0 min 0 W/m 12,2 C 13,9 C 9,8 km/h (2 Bft)
27.08.2010 03:12 15,5 C 81 % 1001,5 hPa 0,0 l/m 12,0 km/h (2 Bft) O-NO 65 0 min 0 W/m 12,3 C 12,8 C 12,0 km/h (2 Bft)
27.08.2010 03:17 15,5 C 81 % 1001,5 hPa 0,0 l/m 6,0 km/h (2 Bft) NO 45 0 min 0 W/m 12,3 C 15,5 C 6,0 km/h (2 Bft)
27.08.2010 03:21 15,5 C 81 % 1000,5 hPa 0,0 l/m 11,5 km/h (2 Bft) N-NO 25 0 min 0 W/m 12,3 C 13,0 C 11,5 km/h (2 Bft)
27.08.2010 03:26 15,5 C 82 % 1000,5 hPa 0,0 l/m 2,0 km/h (1 Bft) NO 35 0 min 0 W/m 12,4 C 15,5 C 2,0 km/h (1 Bft)
27.08.2010 03:31 15,5 C 82 % 1000,5 hPa 0,0 l/m 1,2 km/h (1 Bft) N-NW 345 0 min 0 W/m 12,4 C 15,5 C 1,2 km/h (1 Bft)
27.08.2010 03:36 15,4 C 82 % 1000,5 hPa 0,0 l/m 9,2 km/h (2 Bft) N-NO 25 0 min 0 W/m 12,3 C 13,9 C 9,2 km/h (2 Bft)
27.08.2010 03:41 15,4 C 82 % 1000,5 hPa 0,0 l/m 14,3 km/h (3 Bft) O-NO 65 0 min 0 W/m 12,3 C 11,9 C 14,3 km/h (3 Bft)
27.08.2010 03:46 15,3 C 82 % 1000,5 hPa 0,0 l/m 11,1 km/h (2 Bft) O-NO 75 0 min 0 W/m 12,2 C 13,0 C 11,1 km/h (2 Bft)
27.08.2010 03:51 15,3 C 82 % 1000,5 hPa 0,0 l/m 15,0 km/h (3 Bft) O-SO 105 0 min 0 W/m 12,2 C 11,6 C 15,0 km/h (3 Bft)
27.08.2010 03:57 15,3 C 83 % 1000,5 hPa 0,0 l/m 10,3 km/h (2 Bft) O-NO 75 0 min 0 W/m 12,4 C 13,3 C 10,3 km/h (2 Bft)
27.08.2010 04:02 15,3 C 83 % 1000,5 hPa 0,0 l/m 13,5 km/h (3 Bft) NO 50 0 min 0 W/m 12,4 C 12,1 C 13,5 km/h (3 Bft)
27.08.2010 04:06 15,2 C 83 % 1000,5 hPa 0,0 l/m 6,5 km/h (2 Bft) N 350 0 min 0 W/m 12,3 C 15,2 C 6,5 km/h (2 Bft)
27.08.2010 04:11 15,2 C 83 % 1000,5 hPa 0,0 l/m 14,0 km/h (3 Bft) NO 45 0 min 0 W/m 12,3 C 11,8 C 14,0 km/h (3 Bft)
27.08.2010 04:16 15,1 C 83 % 1000,5 hPa 0,0 l/m 11,5 km/h (2 Bft) O-NO 70 0 min 0 W/m 12,2 C 12,6 C 11,5 km/h (2 Bft)
27.08.2010 04:22 15,1 C 83 % 1000,5 hPa 0,0 l/m 9,2 km/h (2 Bft) NO 40 0 min 0 W/m 12,2 C 13,6 C 9,2 km/h (2 Bft)
27.08.2010 04:27 15,0 C 83 % 1000,5 hPa 0,0 l/m 12,5 km/h (2 Bft) N-NO 25 0 min 0 W/m 12,1 C 12,1 C 12,5 km/h (2 Bft)
27.08.2010 04:31 15,0 C 83 % 1000,5 hPa 0,0 l/m 13,1 km/h (3 Bft) N-NO 25 0 min 0 W/m 12,1 C 11,9 C 13,1 km/h (3 Bft)
27.08.2010 04:36 15,0 C 83 % 1000,5 hPa 0,0 l/m 17,9 km/h (3 Bft) N-NO 15 0 min 0 W/m 12,1 C 10,3 C 17,9 km/h (3 Bft)
27.08.2010 04:41 14,9 C 83 % 1000,5 hPa 0,0 l/m 22,8 km/h (4 Bft) N-NO 25 0 min 0 W/m 12,0 C 8,9 C 22,8 km/h (4 Bft)
27.08.2010 04:46 14,8 C 83 % 1000,5 hPa 0,0 l/m 13,9 km/h (3 Bft) N-NO 30 0 min 0 W/m 11,9 C 11,3 C 13,9 km/h (3 Bft)
27.08.2010 04:51 14,7 C 82 % 1000,5 hPa 0,0 l/m 13,8 km/h (3 Bft) NO 50 0 min 0 W/m 11,7 C 11,2 C 13,8 km/h (3 Bft)
27.08.2010 04:56 14,7 C 82 % 1000,5 hPa 0,0 l/m 16,0 km/h (3 Bft) N-NO 25 0 min 0 W/m 11,7 C 10,5 C 16,0 km/h (3 Bft)
27.08.2010 05:01 14,6 C 82 % 1000,5 hPa 0,0 l/m 22,3 km/h (4 Bft) NO 45 0 min 0 W/m 11,6 C 8,7 C 22,3 km/h (4 Bft)
27.08.2010 05:06 14,6 C 82 % 1000,5 hPa 0,0 l/m 23,9 km/h (4 Bft) NO 40 0 min 0 W/m 11,6 C 8,3 C 23,9 km/h (4 Bft)
27.08.2010 05:11 14,6 C 82 % 1000,5 hPa 0,0 l/m 15,1 km/h (3 Bft) N-NO 20 0 min 0 W/m 11,6 C 10,7 C 15,1 km/h (3 Bft)
27.08.2010 05:16 14,6 C 82 % 1000,5 hPa 0,0 l/m 15,5 km/h (3 Bft) N-NO 15 0 min 0 W/m 11,6 C 10,5 C 15,5 km/h (3 Bft)
27.08.2010 05:21 14,6 C 80 % 1000,5 hPa 0,0 l/m 22,0 km/h (4 Bft) N-NO 30 0 min 0 W/m 11,2 C 8,7 C 22,0 km/h (4 Bft)
27.08.2010 05:27 14,6 C 80 % 1000,5 hPa 0,0 l/m 15,5 km/h (3 Bft) NO 45 0 min 0 W/m 11,2 C 10,5 C 15,5 km/h (3 Bft)
27.08.2010 05:32 14,6 C 80 % 1000,5 hPa 0,0 l/m 17,4 km/h (3 Bft) N-NO 25 0 min 0 W/m 11,2 C 10,0 C 17,4 km/h (3 Bft)
27.08.2010 05:36 14,6 C 80 % 1000,5 hPa 0,0 l/m 19,8 km/h (3 Bft) O-NO 65 0 min 0 W/m 11,2 C 9,3 C 19,8 km/h (3 Bft)
27.08.2010 05:41 14,6 C 80 % 1000,5 hPa 0,0 l/m 16,8 km/h (3 Bft) N-NO 30 0 min 0 W/m 11,2 C 10,1 C 16,8 km/h (3 Bft)
27.08.2010 05:46 14,6 C 80 % 1000,5 hPa 0,0 l/m 24,6 km/h (4 Bft) NO 35 0 min 0 W/m 11,2 C 8,1 C 24,6 km/h (4 Bft)
27.08.2010 05:51 14,6 C 80 % 1000,5 hPa 0,0 l/m 25,0 km/h (4 Bft) NO 35 0 min 0 W/m 11,2 C 8,1 C 25,0 km/h (4 Bft)
27.08.2010 05:56 14,6 C 80 % 1000,5 hPa 0,0 l/m 23,0 km/h (4 Bft) NO 45 0 min 0 W/m 11,2 C 8,5 C 23,0 km/h (4 Bft)
27.08.2010 06:01 14,6 C 79 % 1000,5 hPa 0,0 l/m 16,8 km/h (3 Bft) N-NO 25 0 min 0 W/m 11,0 C 10,1 C 16,8 km/h (3 Bft)
27.08.2010 06:06 14,6 C 79 % 1000,5 hPa 0,0 l/m 22,6 km/h (4 Bft) NO 35 0 min 0 W/m 11,0 C 8,6 C 22,6 km/h (4 Bft)
27.08.2010 06:11 14,4 C 78 % 1000,5 hPa 0,0 l/m 24,7 km/h (4 Bft) O-NO 60 0 min 0 W/m 10,6 C 7,9 C 24,7 km/h (4 Bft)
27.08.2010 06:16 14,4 C 78 % 1000,5 hPa 0,0 l/m 22,3 km/h (4 Bft) N-NO 25 0 min 0 W/m 10,6 C 8,4 C 22,3 km/h (4 Bft)
27.08.2010 06:21 14,2 C 79 % 1000,5 hPa 0,0 l/m 20,2 km/h (4 Bft) N-NO 20 0 min 0 W/m 10,6 C 8,7 C 20,2 km/h (4 Bft)
27.08.2010 06:26 14,1 C 80 % 1000,5 hPa 0,0 l/m 21,5 km/h (4 Bft) NO 40 0 min 0 W/m 10,7 C 8,2 C 21,5 km/h (4 Bft)
27.08.2010 06:32 14,0 C 80 % 1000,5 hPa 0,0 l/m 23,3 km/h (4 Bft) N 5 0 min 0 W/m 10,6 C 7,6 C 23,3 km/h (4 Bft)
27.08.2010 06:37 14,0 C 79 % 1000,5 hPa 0,0 l/m 20,3 km/h (4 Bft) N-NO 15 0 min 0 W/m 10,4 C 8,4 C 20,3 km/h (4 Bft)
27.08.2010 06:41 14,0 C 79 % 1000,5 hPa 0,0 l/m 20,7 km/h (4 Bft) N-NO 20 0 min 0 W/m 10,4 C 8,3 C 20,7 km/h (4 Bft)
27.08.2010 06:46 14,1 C 80 % 999,5 hPa 0,0 l/m 16,9 km/h (3 Bft) NO 50 0 min 0 W/m 10,7 C 9,5 C 16,9 km/h (3 Bft)
27.08.2010 06:51 14,1 C 81 % 1000,5 hPa 0,0 l/m 14,3 km/h (3 Bft) NO 55 0 min 0 W/m 10,9 C 10,3 C 14,3 km/h (3 Bft)
27.08.2010 06:56 14,1 C 82 % 1000,5 hPa 0,0 l/m 20,6 km/h (4 Bft) N 5 0 min 0 W/m 11,1 C 8,4 C 20,6 km/h (4 Bft)
27.08.2010 07:01 14,2 C 82 % 1000,5 hPa 0,0 l/m 16,2 km/h (3 Bft) NO 35 0 min 0 W/m 11,2 C 9,8 C 16,2 km/h (3 Bft)
27.08.2010 07:06 14,2 C 83 % 1000,5 hPa 0,3 l/m 16,7 km/h (3 Bft) N 5 0 min 0 W/m 11,4 C 9,7 C 16,7 km/h (3 Bft)
27.08.2010 07:11 14,1 C 83 % 1000,5 hPa 0,0 l/m 12,7 km/h (3 Bft) N 10 0 min 0 W/m 11,3 C 11,0 C 12,7 km/h (3 Bft)
27.08.2010 07:16 14,2 C 83 % 1000,5 hPa 0,0 l/m 17,3 km/h (3 Bft) NO 55 0 min 0 W/m 11,4 C 9,5 C 17,3 km/h (3 Bft)
27.08.2010 07:21 14,1 C 82 % 1000,5 hPa 0,0 l/m 10,3 km/h (2 Bft) N-NO 25 0 min 0 W/m 11,1 C 12,0 C 10,3 km/h (2 Bft)
27.08.2010 07:26 14,2 C 83 % 1000,5 hPa 0,0 l/m 10,6 km/h (2 Bft) N-NO 30 0 min 0 W/m 11,4 C 12,0 C 10,6 km/h (2 Bft)
27.08.2010 07:31 14,3 C 83 % 1000,5 hPa 0,0 l/m 11,1 km/h (2 Bft) NO 35 0 min 0 W/m 11,5 C 11,8 C 11,1 km/h (2 Bft)
27.08.2010 07:37 14,3 C 83 % 1000,5 hPa 0,0 l/m 14,5 km/h (3 Bft) NO 45 0 min 0 W/m 11,5 C 10,5 C 14,5 km/h (3 Bft)
27.08.2010 07:42 14,3 C 83 % 1000,5 hPa 0,0 l/m 15,5 km/h (3 Bft) NO 50 0 min 0 W/m 11,5 C 10,2 C 15,5 km/h (3 Bft)
27.08.2010 07:46 14,4 C 83 % 1000,5 hPa 0,0 l/m 17,1 km/h (3 Bft) NO 35 0 min 0 W/m 11,5 C 9,8 C 17,1 km/h (3 Bft)
27.08.2010 07:51 14,4 C 83 % 1000,5 hPa 0,0 l/m 18,1 km/h (3 Bft) N-NO 20 0 min 0 W/m 11,5 C 9,5 C 18,1 km/h (3 Bft)
27.08.2010 07:56 14,3 C 83 % 1000,5 hPa 0,0 l/m 19,1 km/h (3 Bft) N-NO 30 0 min 0 W/m 11,5 C 9,1 C 19,1 km/h (3 Bft)
27.08.2010 08:01 14,4 C 83 % 1000,5 hPa 0,0 l/m 15,2 km/h (3 Bft) NO 40 0 min 0 W/m 11,5 C 10,4 C 15,2 km/h (3 Bft)
27.08.2010 08:07 14,4 C 83 % 1000,5 hPa 0,0 l/m 16,8 km/h (3 Bft) N-NO 30 0 min 0 W/m 11,5 C 9,9 C 16,8 km/h (3 Bft)
27.08.2010 08:11 14,4 C 83 % 1000,5 hPa 0,0 l/m 19,9 km/h (4 Bft) NO 35 0 min 0 W/m 11,5 C 9,0 C 19,9 km/h (4 Bft)
27.08.2010 08:16 14,3 C 83 % 1000,5 hPa 0,0 l/m 13,7 km/h (3 Bft) N-NO 25 0 min 0 W/m 11,5 C 10,8 C 13,7 km/h (3 Bft)
27.08.2010 08:21 14,3 C 83 % 1000,5 hPa 0,0 l/m 20,4 km/h (4 Bft) N-NO 30 0 min 0 W/m 11,5 C 8,7 C 20,4 km/h (4 Bft)
27.08.2010 08:26 14,3 C 83 % 1000,5 hPa 0,0 l/m 17,3 km/h (3 Bft) N-NO 30 0 min 0 W/m 11,5 C 9,6 C 17,3 km/h (3 Bft)
27.08.2010 08:31 14,3 C 83 % 1000,5 hPa 0,0 l/m 20,7 km/h (4 Bft) NO 35 0 min 0 W/m 11,5 C 8,7 C 20,7 km/h (4 Bft)
27.08.2010 08:36 14,4 C 84 % 1000,5 hPa 0,0 l/m 21,6 km/h (4 Bft) N-NO 30 0 min 0 W/m 11,7 C 8,6 C 21,6 km/h (4 Bft)
27.08.2010 08:42 14,2 C 84 % 1000,5 hPa 0,0 l/m 18,1 km/h (3 Bft) N-NO 30 0 min 0 W/m 11,5 C 9,2 C 18,1 km/h (3 Bft)
27.08.2010 08:47 14,3 C 83 % 1000,5 hPa 0,0 l/m 19,0 km/h (3 Bft) N-NO 25 0 min 0 W/m 11,5 C 9,1 C 19,0 km/h (3 Bft)
27.08.2010 08:51 14,4 C 83 % 1000,5 hPa 0,0 l/m 16,1 km/h (3 Bft) N-NO 15 0 min 0 W/m 11,5 C 10,1 C 16,1 km/h (3 Bft)
27.08.2010 08:56 14,3 C 84 % 1000,5 hPa 0,0 l/m 17,7 km/h (3 Bft) NO 35 0 min 0 W/m 11,6 C 9,5 C 17,7 km/h (3 Bft)
27.08.2010 09:01 14,4 C 83 % 1000,5 hPa 0,0 l/m 16,5 km/h (3 Bft) N-NO 25 0 min 0 W/m 11,5 C 10,0 C 16,5 km/h (3 Bft)
27.08.2010 09:07 14,4 C 83 % 1000,5 hPa 0,0 l/m 26,0 km/h (4 Bft) N-NO 25 0 min 0 W/m 11,5 C 7,6 C 26,0 km/h (4 Bft)
27.08.2010 09:11 14,5 C 84 % 1000,5 hPa 0,0 l/m 18,1 km/h (3 Bft) NO 45 0 min 0 W/m 11,8 C 9,6 C 18,1 km/h (3 Bft)
27.08.2010 09:16 14,5 C 84 % 1000,5 hPa 0,0 l/m 15,6 km/h (3 Bft) NO 35 0 min 0 W/m 11,8 C 10,4 C 15,6 km/h (3 Bft)
27.08.2010 09:21 14,6 C 84 % 1000,5 hPa 0,0 l/m 12,0 km/h (2 Bft) N 10 0 min 0 W/m 11,9 C 11,8 C 12,0 km/h (2 Bft)
27.08.2010 09:26 14,5 C 85 % 1000,5 hPa 0,0 l/m 17,4 km/h (3 Bft) N-NO 20 0 min 0 W/m 12,0 C 9,8 C 17,4 km/h (3 Bft)
27.08.2010 09:31 14,5 C 85 % 1000,5 hPa 0,0 l/m 20,1 km/h (4 Bft) NO 45 0 min 0 W/m 12,0 C 9,1 C 20,1 km/h (4 Bft)
27.08.2010 09:36 14,4 C 85 % 1000,5 hPa 0,3 l/m 17,5 km/h (3 Bft) N-NO 25 0 min 0 W/m 11,9 C 9,7 C 17,5 km/h (3 Bft)
27.08.2010 09:42 14,4 C 86 % 1000,5 hPa 0,0 l/m 13,1 km/h (3 Bft) NO 35 0 min 0 W/m 12,1 C 11,1 C 13,1 km/h (3 Bft)
27.08.2010 09:47 14,0 C 84 % 1000,5 hPa 0,0 l/m 22,8 km/h (4 Bft) NO 45 0 min 0 W/m 11,3 C 7,7 C 22,8 km/h (4 Bft)
27.08.2010 09:51 14,0 C 84 % 1000,5 hPa 0,3 l/m 17,8 km/h (3 Bft) NO 35 0 min 0 W/m 11,3 C 9,1 C 17,8 km/h (3 Bft)
27.08.2010 09:56 13,8 C 83 % 1000,5 hPa 0,3 l/m 25,0 km/h (4 Bft) NO 40 0 min 0 W/m 11,0 C 7,0 C 25,0 km/h (4 Bft)
27.08.2010 10:01 13,6 C 83 % 1000,5 hPa 0,3 l/m 23,9 km/h (4 Bft) N-NO 25 0 min 0 W/m 10,8 C 7,0 C 23,9 km/h (4 Bft)
27.08.2010 10:07 13,5 C 83 % 1000,5 hPa 0,0 l/m 18,5 km/h (3 Bft) NO 40 0 min 0 W/m 10,7 C 8,2 C 18,5 km/h (3 Bft)
27.08.2010 10:12 13,4 C 84 % 1000,5 hPa 0,3 l/m 12,8 km/h (3 Bft) N-NO 20 0 min 0 W/m 10,8 C 10,1 C 12,8 km/h (3 Bft)
27.08.2010 10:16 13,5 C 85 % 1000,5 hPa 0,0 l/m 18,1 km/h (3 Bft) N-NO 25 0 min 0 W/m 11,0 C 8,4 C 18,1 km/h (3 Bft)
27.08.2010 10:21 13,5 C 86 % 1000,5 hPa 0,0 l/m 15,0 km/h (3 Bft) N 10 0 min 0 W/m 11,2 C 9,4 C 15,0 km/h (3 Bft)
27.08.2010 10:26 13,6 C 85 % 1000,5 hPa 0,0 l/m 17,3 km/h (3 Bft) NO 35 0 min 0 W/m 11,1 C 8,7 C 17,3 km/h (3 Bft)
27.08.2010 10:31 13,6 C 86 % 1000,5 hPa 0,0 l/m 17,1 km/h (3 Bft) N-NO 25 0 min 0 W/m 11,3 C 8,8 C 17,1 km/h (3 Bft)
27.08.2010 10:36 13,7 C 86 % 1000,5 hPa 0,0 l/m 16,8 km/h (3 Bft) N-NO 15 0 min 0 W/m 11,4 C 9,0 C 16,8 km/h (3 Bft)
27.08.2010 10:41 13,8 C 86 % 1000,5 hPa 0,3 l/m 14,5 km/h (3 Bft) N-NO 15 0 min 0 W/m 11,5 C 9,9 C 14,5 km/h (3 Bft)
27.08.2010 10:47 13,9 C 85 % 1000,5 hPa 0,0 l/m 21,8 km/h (4 Bft) N-NO 15 0 min 0 W/m 11,4 C 7,9 C 21,8 km/h (4 Bft)
27.08.2010 10:51 13,9 C 85 % 1000,5 hPa 0,0 l/m 18,7 km/h (3 Bft) N-NO 15 0 min 0 W/m 11,4 C 8,7 C 18,7 km/h (3 Bft)
27.08.2010 10:56 13,9 C 85 % 1000,5 hPa 0,0 l/m 15,0 km/h (3 Bft) N-NO 25 0 min 0 W/m 11,4 C 9,9 C 15,0 km/h (3 Bft)
27.08.2010 11:01 13,9 C 84 % 1000,5 hPa 0,0 l/m 18,0 km/h (3 Bft) N-NO 15 0 min 0 W/m 11,2 C 8,9 C 18,0 km/h (3 Bft)
27.08.2010 11:06 13,8 C 84 % 1000,5 hPa 0,0 l/m 21,4 km/h (4 Bft) N 10 0 min 0 W/m 11,1 C 7,8 C 21,4 km/h (4 Bft)
27.08.2010 11:12 13,8 C 84 % 1000,5 hPa 0,0 l/m 13,6 km/h (3 Bft) NO 35 0 min 0 W/m 11,1 C 10,2 C 13,6 km/h (3 Bft)
27.08.2010 11:16 13,9 C 85 % 1000,5 hPa 0,0 l/m 20,3 km/h (4 Bft) N-NO 25 0 min 0 W/m 11,4 C 8,2 C 20,3 km/h (4 Bft)
27.08.2010 11:21 13,9 C 85 % 1001,5 hPa 0,0 l/m 20,1 km/h (4 Bft) N-NO 25 0 min 0 W/m 11,4 C 8,3 C 20,1 km/h (4 Bft)
27.08.2010 11:26 14,0 C 85 % 1001,5 hPa 0,0 l/m 15,3 km/h (3 Bft) N-NO 20 0 min 0 W/m 11,5 C 9,9 C 15,3 km/h (3 Bft)
27.08.2010 11:31 14,0 C 84 % 1001,5 hPa 0,0 l/m 14,6 km/h (3 Bft) N-NO 25 0 min 0 W/m 11,3 C 10,1 C 14,6 km/h (3 Bft)
27.08.2010 11:36 14,0 C 85 % 1001,5 hPa 0,0 l/m 19,1 km/h (3 Bft) N-NO 15 0 min 0 W/m 11,5 C 8,7 C 19,1 km/h (3 Bft)
27.08.2010 11:41 14,1 C 86 % 1001,5 hPa 0,3 l/m 20,5 km/h (4 Bft) N-NO 15 0 min 0 W/m 11,8 C 8,5 C 20,5 km/h (4 Bft)
27.08.2010 11:47 14,1 C 87 % 1001,5 hPa 0,0 l/m 15,5 km/h (3 Bft) N-NO 15 0 min 0 W/m 12,0 C 9,9 C 15,5 km/h (3 Bft)
27.08.2010 11:51 14,2 C 87 % 1001,5 hPa 0,0 l/m 18,3 km/h (3 Bft) N-NO 30 0 min 0 W/m 12,1 C 9,2 C 18,3 km/h (3 Bft)
27.08.2010 11:56 14,2 C 87 % 1001,5 hPa 0,3 l/m 15,6 km/h (3 Bft) N-NO 20 0 min 0 W/m 12,1 C 10,0 C 15,6 km/h (3 Bft)
27.08.2010 12:01 14,2 C 88 % 1001,5 hPa 0,0 l/m 14,2 km/h (3 Bft) N-NO 25 0 min 0 W/m 12,2 C 10,5 C 14,2 km/h (3 Bft)
27.08.2010 12:07 14,2 C 88 % 1001,5 hPa 0,3 l/m 18,8 km/h (3 Bft) N-NO 15 0 min 0 W/m 12,2 C 9,0 C 18,8 km/h (3 Bft)
27.08.2010 12:12 14,2 C 88 % 1001,5 hPa 0,0 l/m 15,5 km/h (3 Bft) N-NO 20 0 min 0 W/m 12,2 C 10,1 C 15,5 km/h (3 Bft)
27.08.2010 12:16 14,2 C 88 % 1001,5 hPa 0,0 l/m 13,5 km/h (3 Bft) N-NO 25 0 min 0 W/m 12,2 C 10,8 C 13,5 km/h (3 Bft)
27.08.2010 12:21 14,3 C 88 % 1001,5 hPa 0,3 l/m 10,6 km/h (2 Bft) N-NO 15 0 min 0 W/m 12,3 C 12,1 C 10,6 km/h (2 Bft)
27.08.2010 12:26 14,3 C 88 % 1001,5 hPa 0,0 l/m 16,2 km/h (3 Bft) N-NO 30 0 min 0 W/m 12,3 C 9,9 C 16,2 km/h (3 Bft)
27.08.2010 12:31 14,2 C 88 % 1001,5 hPa 0,0 l/m 18,6 km/h (3 Bft) N-NO 25 0 min 0 W/m 12,2 C 9,1 C 18,6 km/h (3 Bft)
27.08.2010 12:36 14,4 C 88 % 1001,5 hPa 0,3 l/m 13,9 km/h (3 Bft) N-NO 15 0 min 0 W/m 12,4 C 10,9 C 13,9 km/h (3 Bft)
27.08.2010 12:42 14,4 C 88 % 1001,5 hPa 0,0 l/m 13,0 km/h (3 Bft) N-NO 20 0 min 0 W/m 12,4 C 11,2 C 13,0 km/h (3 Bft)
27.08.2010 12:46 14,4 C 88 % 1001,5 hPa 0,0 l/m 12,0 km/h (2 Bft) N-NO 20 0 min 0 W/m 12,4 C 11,6 C 12,0 km/h (2 Bft)
27.08.2010 12:51 14,4 C 88 % 1001,5 hPa 0,3 l/m 17,8 km/h (3 Bft) N-NO 20 0 min 0 W/m 12,4 C 9,6 C 17,8 km/h (3 Bft)
27.08.2010 12:56 14,5 C 89 % 1001,5 hPa 0,0 l/m 19,5 km/h (3 Bft) N-NO 20 0 min 0 W/m 12,7 C 9,2 C 19,5 km/h (3 Bft)
27.08.2010 13:01 14,5 C 89 % 1001,5 hPa 0,3 l/m 24,9 km/h (4 Bft) N-NO 25 0 min 0 W/m 12,7 C 8,0 C 24,9 km/h (4 Bft)
27.08.2010 13:07 14,6 C 89 % 1001,5 hPa 0,0 l/m 17,0 km/h (3 Bft) N 5 0 min 0 W/m 12,8 C 10,1 C 17,0 km/h (3 Bft)
27.08.2010 13:11 14,5 C 89 % 1001,5 hPa 0,0 l/m 21,8 km/h (4 Bft) N-NO 15 0 min 0 W/m 12,7 C 8,6 C 21,8 km/h (4 Bft)
27.08.2010 13:16 14,4 C 88 % 1001,5 hPa 0,3 l/m 18,1 km/h (3 Bft) N-NO 30 0 min 0 W/m 12,4 C 9,5 C 18,1 km/h (3 Bft)
27.08.2010 13:21 14,4 C 89 % 1001,5 hPa 0,0 l/m 20,2 km/h (4 Bft) N-NO 15 0 min 0 W/m 12,6 C 8,9 C 20,2 km/h (4 Bft)
27.08.2010 13:26 14,5 C 89 % 1001,5 hPa 0,0 l/m 16,8 km/h (3 Bft) N-NO 25 0 min 0 W/m 12,7 C 10,0 C 16,8 km/h (3 Bft)
27.08.2010 13:31 14,5 C 89 % 1001,5 hPa 0,3 l/m 16,1 km/h (3 Bft) N-NO 15 0 min 0 W/m 12,7 C 10,2 C 16,1 km/h (3 Bft)
27.08.2010 13:37 14,5 C 89 % 1001,5 hPa 0,0 l/m 19,6 km/h (3 Bft) N-NO 15 0 min 0 W/m 12,7 C 9,2 C 19,6 km/h (3 Bft)
27.08.2010 13:41 14,4 C 88 % 1001,5 hPa 0,3 l/m 20,2 km/h (4 Bft) N-NO 30 0 min 0 W/m 12,4 C 8,9 C 20,2 km/h (4 Bft)
27.08.2010 13:46 14,4 C 88 % 1001,5 hPa 0,0 l/m 17,8 km/h (3 Bft) N 10 0 min 0 W/m 12,4 C 9,6 C 17,8 km/h (3 Bft)
27.08.2010 13:51 14,4 C 88 % 1001,5 hPa 0,0 l/m 18,5 km/h (3 Bft) N-NO 15 0 min 0 W/m 12,4 C 9,4 C 18,5 km/h (3 Bft)
27.08.2010 13:56 14,3 C 88 % 1001,5 hPa 0,3 l/m 15,3 km/h (3 Bft) N-NO 15 0 min 0 W/m 12,3 C 10,2 C 15,3 km/h (3 Bft)
27.08.2010 14:01 14,2 C 88 % 1001,5 hPa 0,0 l/m 16,6 km/h (3 Bft) N 5 0 min 0 W/m 12,2 C 9,7 C 16,6 km/h (3 Bft)
27.08.2010 14:06 14,1 C 88 % 1001,5 hPa 0,3 l/m 14,1 km/h (3 Bft) N-NO 20 0 min 0 W/m 12,1 C 10,4 C 14,1 km/h (3 Bft)
27.08.2010 14:11 14,1 C 87 % 1002,5 hPa 0,0 l/m 14,4 km/h (3 Bft) N-NO 25 0 min 0 W/m 12,0 C 10,3 C 14,4 km/h (3 Bft)
27.08.2010 14:16 14,0 C 87 % 1002,5 hPa 0,0 l/m 17,7 km/h (3 Bft) N-NO 15 0 min 0 W/m 11,9 C 9,1 C 17,7 km/h (3 Bft)
27.08.2010 14:21 14,0 C 87 % 1002,5 hPa 0,3 l/m 17,0 km/h (3 Bft) N-NO 30 0 min 0 W/m 11,9 C 9,3 C 17,0 km/h (3 Bft)
27.08.2010 14:26 14,0 C 87 % 1002,5 hPa 0,0 l/m 14,6 km/h (3 Bft) N-NO 15 0 min 0 W/m 11,9 C 10,1 C 14,6 km/h (3 Bft)
27.08.2010 14:32 14,0 C 88 % 1002,5 hPa 0,0 l/m 15,6 km/h (3 Bft) N-NO 15 0 min 0 W/m 12,0 C 9,8 C 15,6 km/h (3 Bft)
27.08.2010 14:37 14,0 C 88 % 1002,5 hPa 0,3 l/m 9,3 km/h (2 Bft) N-NO 20 0 min 0 W/m 12,0 C 12,4 C 9,3 km/h (2 Bft)
27.08.2010 14:41 14,0 C 87 % 1002,5 hPa 0,0 l/m 17,6 km/h (3 Bft) N-NO 20 0 min 0 W/m 11,9 C 9,1 C 17,6 km/h (3 Bft)
27.08.2010 14:46 14,0 C 88 % 1002,5 hPa 0,0 l/m 14,9 km/h (3 Bft) N-NO 15 0 min 0 W/m 12,0 C 10,0 C 14,9 km/h (3 Bft)
27.08.2010 14:51 14,1 C 88 % 1002,5 hPa 0,3 l/m 13,1 km/h (3 Bft) N-NO 20 0 min 0 W/m 12,1 C 10,8 C 13,1 km/h (3 Bft)
27.08.2010 14:56 14,2 C 88 % 1002,5 hPa 0,0 l/m 18,1 km/h (3 Bft) N-NO 20 0 min 0 W/m 12,2 C 9,2 C 18,1 km/h (3 Bft)
27.08.2010 15:01 14,2 C 88 % 1002,5 hPa 0,0 l/m 18,1 km/h (3 Bft) N-NO 15 0 min 0 W/m 12,2 C 9,2 C 18,1 km/h (3 Bft)
27.08.2010 15:06 14,2 C 87 % 1002,5 hPa 0,0 l/m 17,7 km/h (3 Bft) N 10 0 min 0 W/m 12,1 C 9,4 C 17,7 km/h (3 Bft)
27.08.2010 15:11 14,3 C 88 % 1002,5 hPa 0,3 l/m 13,6 km/h (3 Bft) N-NO 25 0 min 0 W/m 12,3 C 10,8 C 13,6 km/h (3 Bft)
27.08.2010 15:16 14,2 C 87 % 1002,5 hPa 0,0 l/m 15,4 km/h (3 Bft) N 5 0 min 0 W/m 12,1 C 10,1 C 15,4 km/h (3 Bft)
27.08.2010 15:21 14,4 C 88 % 1002,5 hPa 0,0 l/m 17,6 km/h (3 Bft) N-NO 15 0 min 0 W/m 12,4 C 9,6 C 17,6 km/h (3 Bft)
27.08.2010 15:26 14,4 C 87 % 1002,5 hPa 0,0 l/m 15,0 km/h (3 Bft) N-NO 15 0 min 0 W/m 12,3 C 10,5 C 15,0 km/h (3 Bft)
27.08.2010 15:32 14,4 C 87 % 1002,5 hPa 0,0 l/m 15,3 km/h (3 Bft) N 10 0 min 0 W/m 12,3 C 10,4 C 15,3 km/h (3 Bft)
27.08.2010 15:36 14,4 C 87 % 1002,5 hPa 0,0 l/m 17,5 km/h (3 Bft) N-NO 20 0 min 0 W/m 12,3 C 9,7 C 17,5 km/h (3 Bft)
27.08.2010 15:41 14,3 C 87 % 1002,5 hPa 0,0 l/m 12,4 km/h (2 Bft) N-NO 20 0 min 0 W/m 12,2 C 11,3 C 12,4 km/h (2 Bft)
27.08.2010 15:46 14,3 C 86 % 1003,5 hPa 0,0 l/m 14,8 km/h (3 Bft) N-NO 15 0 min 0 W/m 12,0 C 10,4 C 14,8 km/h (3 Bft)
27.08.2010 15:51 14,3 C 86 % 1003,5 hPa 0,0 l/m 16,1 km/h (3 Bft) N-NO 15 0 min 0 W/m 12,0 C 10,0 C 16,1 km/h (3 Bft)
27.08.2010 15:56 14,2 C 86 % 1003,5 hPa 0,0 l/m 14,4 km/h (3 Bft) N-NO 25 0 min 0 W/m 11,9 C 10,4 C 14,4 km/h (3 Bft)
27.08.2010 16:02 14,2 C 87 % 1003,5 hPa 0,3 l/m 14,2 km/h (3 Bft) N-NO 15 0 min 0 W/m 12,1 C 10,5 C 14,2 km/h (3 Bft)
27.08.2010 16:06 14,3 C 87 % 1003,5 hPa 0,0 l/m 12,4 km/h (2 Bft) N-NO 25 0 min 0 W/m 12,2 C 11,3 C 12,4 km/h (2 Bft)
27.08.2010 16:11 14,3 C 87 % 1003,5 hPa 0,0 l/m 15,3 km/h (3 Bft) N-NO 25 0 min 0 W/m 12,2 C 10,2 C 15,3 km/h (3 Bft)
27.08.2010 16:16 14,4 C 87 % 1003,5 hPa 0,0 l/m 9,8 km/h (2 Bft) N-NO 30 0 min 0 W/m 12,3 C 12,5 C 9,8 km/h (2 Bft)
27.08.2010 16:22 14,4 C 87 % 1003,5 hPa 0,0 l/m 13,9 km/h (3 Bft) N-NO 20 0 min 0 W/m 12,3 C 10,9 C 13,9 km/h (3 Bft)
27.08.2010 16:27 14,4 C 87 % 1003,5 hPa 0,0 l/m 15,1 km/h (3 Bft) N-NO 15 0 min 0 W/m 12,3 C 10,4 C 15,1 km/h (3 Bft)
27.08.2010 16:31 14,6 C 86 % 1003,5 hPa 0,0 l/m 13,9 km/h (3 Bft) N 10 0 min 0 W/m 12,3 C 11,1 C 13,9 km/h (3 Bft)
27.08.2010 16:36 14,7 C 85 % 1003,5 hPa 0,0 l/m 18,8 km/h (3 Bft) N-NO 25 0 min 0 W/m 12,2 C 9,7 C 18,8 km/h (3 Bft)
27.08.2010 16:41 14,7 C 85 % 1003,5 hPa 0,0 l/m 18,3 km/h (3 Bft) N-NO 15 0 min 0 W/m 12,2 C 9,8 C 18,3 km/h (3 Bft)
27.08.2010 16:46 14,8 C 85 % 1003,5 hPa 0,0 l/m 15,9 km/h (3 Bft) N 10 0 min 0 W/m 12,3 C 10,7 C 15,9 km/h (3 Bft)
27.08.2010 16:51 14,8 C 85 % 1003,5 hPa 0,0 l/m 15,3 km/h (3 Bft) N 10 0 min 0 W/m 12,3 C 10,9 C 15,3 km/h (3 Bft)
27.08.2010 16:57 15,0 C 85 % 1003,5 hPa 0,0 l/m 13,2 km/h (3 Bft) N-NO 15 0 min 0 W/m 12,5 C 11,8 C 13,2 km/h (3 Bft)
27.08.2010 17:02 15,0 C 84 % 1003,5 hPa 0,0 l/m 18,5 km/h (3 Bft) N-NO 25 0 min 0 W/m 12,3 C 10,1 C 18,5 km/h (3 Bft)
27.08.2010 17:06 15,2 C 84 % 1003,5 hPa 0,0 l/m 18,4 km/h (3 Bft) N-NO 15 0 min 0 W/m 12,5 C 10,4 C 18,4 km/h (3 Bft)
27.08.2010 17:11 15,2 C 83 % 1003,5 hPa 0,0 l/m 21,9 km/h (4 Bft) N-NO 20 0 min 0 W/m 12,3 C 9,5 C 21,9 km/h (4 Bft)
27.08.2010 17:17 15,4 C 81 % 1003,5 hPa 0,0 l/m 17,3 km/h (3 Bft) N 10 0 min 0 W/m 12,2 C 11,0 C 17,3 km/h (3 Bft)
27.08.2010 17:22 15,4 C 80 % 1003,5 hPa 0,0 l/m 15,3 km/h (3 Bft) N-NO 15 0 min 0 W/m 12,0 C 11,6 C 15,3 km/h (3 Bft)
27.08.2010 17:26 15,4 C 79 % 1003,5 hPa 0,0 l/m 17,4 km/h (3 Bft) N 5 0 min 0 W/m 11,8 C 11,0 C 17,4 km/h (3 Bft)
27.08.2010 17:31 15,6 C 79 % 1003,5 hPa 0,0 l/m 15,8 km/h (3 Bft) N-NO 25 0 min 0 W/m 12,0 C 11,7 C 15,8 km/h (3 Bft)
27.08.2010 17:36 15,7 C 79 % 1003,5 hPa 0,0 l/m 19,0 km/h (3 Bft) N 360 0 min 0 W/m 12,1 C 10,9 C 19,0 km/h (3 Bft)
27.08.2010 17:41 15,7 C 77 % 1003,5 hPa 0,0 l/m 14,6 km/h (3 Bft) N-NO 15 0 min 0 W/m 11,7 C 12,2 C 14,6 km/h (3 Bft)
27.08.2010 17:47 15,9 C 77 % 1003,5 hPa 0,0 l/m 18,3 km/h (3 Bft) N-NO 15 0 min 0 W/m 11,9 C 11,3 C 18,3 km/h (3 Bft)
27.08.2010 17:52 16,1 C 76 % 1003,5 hPa 0,0 l/m 14,6 km/h (3 Bft) N-NO 15 0 min 0 W/m 11,9 C 12,6 C 14,6 km/h (3 Bft)
27.08.2010 17:56 16,3 C 74 % 1003,5 hPa 0,0 l/m 18,2 km/h (3 Bft) N-NO 15 0 min 0 W/m 11,7 C 11,9 C 18,2 km/h (3 Bft)
27.08.2010 18:01 16,4 C 74 % 1003,5 hPa 0,0 l/m 16,7 km/h (3 Bft) N-NO 25 0 min 0 W/m 11,8 C 12,4 C 16,7 km/h (3 Bft)
27.08.2010 18:07 16,3 C 72 % 1003,5 hPa 0,0 l/m 18,8 km/h (3 Bft) N-NO 20 0 min 0 W/m 11,2 C 11,7 C 18,8 km/h (3 Bft)
27.08.2010 18:12 16,2 C 72 % 1003,5 hPa 0,0 l/m 19,8 km/h (3 Bft) N 5 0 min 0 W/m 11,1 C 11,3 C 19,8 km/h (3 Bft)
27.08.2010 18:16 16,2 C 72 % 1004,5 hPa 0,0 l/m 19,1 km/h (3 Bft) N 10 0 min 0 W/m 11,1 C 11,5 C 19,1 km/h (3 Bft)
27.08.2010 18:21 16,0 C 71 % 1004,5 hPa 0,0 l/m 28,2 km/h (5 Bft) N-NO 15 0 min 0 W/m 10,7 C 9,4 C 28,2 km/h (5 Bft)
27.08.2010 18:26 15,9 C 72 % 1004,5 hPa 0,0 l/m 19,1 km/h (3 Bft) N 5 0 min 0 W/m 10,9 C 11,1 C 19,1 km/h (3 Bft)
27.08.2010 18:31 15,8 C 72 % 1004,5 hPa 0,0 l/m 23,1 km/h (4 Bft) N 10 0 min 0 W/m 10,8 C 10,1 C 23,1 km/h (4 Bft)
27.08.2010 18:37 15,8 C 72 % 1004,5 hPa 0,0 l/m 19,3 km/h (3 Bft) N 360 0 min 0 W/m 10,8 C 11,0 C 19,3 km/h (3 Bft)
27.08.2010 18:42 15,7 C 73 % 1004,5 hPa 0,0 l/m 21,9 km/h (4 Bft) N 5 0 min 0 W/m 10,9 C 10,2 C 21,9 km/h (4 Bft)
27.08.2010 18:46 15,7 C 72 % 1004,5 hPa 0,0 l/m 19,4 km/h (3 Bft) N 5 0 min 0 W/m 10,7 C 10,8 C 19,4 km/h (3 Bft)
27.08.2010 18:51 15,7 C 72 % 1004,5 hPa 0,0 l/m 23,6 km/h (4 Bft) N 5 0 min 0 W/m 10,7 C 9,8 C 23,6 km/h (4 Bft)
27.08.2010 18:56 15,6 C 71 % 1004,5 hPa 0,0 l/m 24,0 km/h (4 Bft) N-NO 15 0 min 0 W/m 10,4 C 9,6 C 24,0 km/h (4 Bft)
27.08.2010 19:01 15,5 C 72 % 1004,5 hPa 0,0 l/m 18,4 km/h (3 Bft) N 5 0 min 0 W/m 10,5 C 10,8 C 18,4 km/h (3 Bft)
27.08.2010 19:06 15,5 C 73 % 1004,5 hPa 0,0 l/m 23,3 km/h (4 Bft) N 5 0 min 0 W/m 10,7 C 9,6 C 23,3 km/h (4 Bft)
27.08.2010 19:11 15,5 C 74 % 1004,5 hPa 0,0 l/m 21,5 km/h (4 Bft) N 5 0 min 0 W/m 10,9 C 10,0 C 21,5 km/h (4 Bft)
27.08.2010 19:16 15,4 C 74 % 1004,5 hPa 0,0 l/m 22,0 km/h (4 Bft) N 10 0 min 0 W/m 10,8 C 9,8 C 22,0 km/h (4 Bft)
27.08.2010 19:21 15,4 C 74 % 1004,5 hPa 0,0 l/m 19,0 km/h (3 Bft) N 5 0 min 0 W/m 10,8 C 10,5 C 19,0 km/h (3 Bft)
27.08.2010 19:27 15,4 C 74 % 1004,5 hPa 0,0 l/m 18,0 km/h (3 Bft) N 10 0 min 0 W/m 10,8 C 10,8 C 18,0 km/h (3 Bft)
27.08.2010 19:32 15,4 C 74 % 1004,5 hPa 0,0 l/m 18,5 km/h (3 Bft) N 10 0 min 0 W/m 10,8 C 10,7 C 18,5 km/h (3 Bft)
27.08.2010 19:36 15,3 C 74 % 1004,5 hPa 0,0 l/m 19,4 km/h (3 Bft) N 10 0 min 0 W/m 10,7 C 10,3 C 19,4 km/h (3 Bft)
27.08.2010 19:41 15,2 C 74 % 1004,5 hPa 0,0 l/m 18,8 km/h (3 Bft) N 10 0 min 0 W/m 10,6 C 10,3 C 18,8 km/h (3 Bft)
27.08.2010 19:46 15,2 C 74 % 1004,5 hPa 0,0 l/m 20,5 km/h (4 Bft) N 5 0 min 0 W/m 10,6 C 9,9 C 20,5 km/h (4 Bft)
27.08.2010 19:51 15,2 C 75 % 1004,5 hPa 0,0 l/m 15,7 km/h (3 Bft) N 360 0 min 0 W/m 10,8 C 11,2 C 15,7 km/h (3 Bft)
27.08.2010 19:57 15,2 C 75 % 1004,5 hPa 0,0 l/m 14,9 km/h (3 Bft) N 10 0 min 0 W/m 10,8 C 11,5 C 14,9 km/h (3 Bft)
27.08.2010 20:02 15,3 C 75 % 1004,5 hPa 0,0 l/m 19,6 km/h (3 Bft) N 5 0 min 0 W/m 10,9 C 10,2 C 19,6 km/h (3 Bft)
27.08.2010 20:06 15,2 C 74 % 1004,5 hPa 0,0 l/m 21,5 km/h (4 Bft) N-NO 20 0 min 0 W/m 10,6 C 9,6 C 21,5 km/h (4 Bft)
27.08.2010 20:11 15,2 C 74 % 1004,5 hPa 0,0 l/m 22,6 km/h (4 Bft) N 10 0 min 0 W/m 10,6 C 9,4 C 22,6 km/h (4 Bft)
27.08.2010 20:17 15,2 C 75 % 1004,5 hPa 0,0 l/m 20,9 km/h (4 Bft) N-NO 15 0 min 0 W/m 10,8 C 9,8 C 20,9 km/h (4 Bft)
27.08.2010 20:22 15,1 C 75 % 1004,5 hPa 0,0 l/m 15,9 km/h (3 Bft) N 5 0 min 0 W/m 10,7 C 11,0 C 15,9 km/h (3 Bft)
27.08.2010 20:26 15,2 C 74 % 1004,5 hPa 0,0 l/m 20,4 km/h (4 Bft) N 5 0 min 0 W/m 10,6 C 9,9 C 20,4 km/h (4 Bft)
27.08.2010 20:31 15,2 C 74 % 1005,5 hPa 0,0 l/m 24,4 km/h (4 Bft) N 10 0 min 0 W/m 10,6 C 9,0 C 24,4 km/h (4 Bft)
27.08.2010 20:36 15,3 C 74 % 1005,5 hPa 0,0 l/m 23,2 km/h (4 Bft) N-NO 20 0 min 0 W/m 10,7 C 9,4 C 23,2 km/h (4 Bft)
27.08.2010 20:41 15,3 C 74 % 1005,5 hPa 0,0 l/m 18,4 km/h (3 Bft) N 10 0 min 0 W/m 10,7 C 10,6 C 18,4 km/h (3 Bft)
27.08.2010 20:46 15,2 C 74 % 1005,5 hPa 0,0 l/m 20,2 km/h (4 Bft) N 10 0 min 0 W/m 10,6 C 10,0 C 20,2 km/h (4 Bft)
27.08.2010 20:52 15,2 C 74 % 1005,5 hPa 0,0 l/m 18,3 km/h (3 Bft) N 355 0 min 0 W/m 10,6 C 10,5 C 18,3 km/h (3 Bft)
27.08.2010 20:56 15,2 C 74 % 1005,5 hPa 0,0 l/m 15,7 km/h (3 Bft) N 355 0 min 0 W/m 10,6 C 11,2 C 15,7 km/h (3 Bft)
27.08.2010 21:01 15,1 C 74 % 1005,5 hPa 0,0 l/m 18,5 km/h (3 Bft) N 5 0 min 0 W/m 10,5 C 10,3 C 18,5 km/h (3 Bft)
27.08.2010 21:07 15,1 C 73 % 1005,5 hPa 0,0 l/m 17,6 km/h (3 Bft) N 360 0 min 0 W/m 10,3 C 10,5 C 17,6 km/h (3 Bft)
27.08.2010 21:12 15,0 C 73 % 1005,5 hPa 0,0 l/m 19,8 km/h (3 Bft) N 360 0 min 0 W/m 10,2 C 9,8 C 19,8 km/h (3 Bft)
27.08.2010 21:16 15,0 C 73 % 1005,5 hPa 0,0 l/m 18,4 km/h (3 Bft) N 5 0 min 0 W/m 10,2 C 10,2 C 18,4 km/h (3 Bft)
27.08.2010 21:21 15,0 C 74 % 1005,5 hPa 0,0 l/m 20,1 km/h (4 Bft) N 5 0 min 0 W/m 10,4 C 9,7 C 20,1 km/h (4 Bft)
27.08.2010 21:26 15,0 C 74 % 1005,5 hPa 0,0 l/m 15,6 km/h (3 Bft) N 350 0 min 0 W/m 10,4 C 11,0 C 15,6 km/h (3 Bft)
27.08.2010 21:31 15,0 C 74 % 1005,5 hPa 0,0 l/m 19,6 km/h (3 Bft) N 355 0 min 0 W/m 10,4 C 9,8 C 19,6 km/h (3 Bft)
27.08.2010 21:37 15,0 C 75 % 1005,5 hPa 0,0 l/m 18,6 km/h (3 Bft) N-NW 345 0 min 0 W/m 10,6 C 10,1 C 18,6 km/h (3 Bft)
27.08.2010 21:42 15,0 C 75 % 1005,5 hPa 0,0 l/m 13,2 km/h (3 Bft) N 355 0 min 0 W/m 10,6 C 11,8 C 13,2 km/h (3 Bft)
27.08.2010 21:46 15,0 C 76 % 1005,5 hPa 0,0 l/m 14,5 km/h (3 Bft) N 350 0 min 0 W/m 10,8 C 11,4 C 14,5 km/h (3 Bft)
27.08.2010 21:51 15,0 C 76 % 1005,5 hPa 0,0 l/m 16,6 km/h (3 Bft) N 360 0 min 0 W/m 10,8 C 10,7 C 16,6 km/h (3 Bft)
27.08.2010 21:56 15,0 C 75 % 1005,5 hPa 0,0 l/m 20,1 km/h (4 Bft) N 360 0 min 0 W/m 10,6 C 9,7 C 20,1 km/h (4 Bft)
27.08.2010 22:01 15,0 C 75 % 1005,5 hPa 0,0 l/m 14,1 km/h (3 Bft) N 360 0 min 0 W/m 10,6 C 11,5 C 14,1 km/h (3 Bft)
27.08.2010 22:06 15,0 C 75 % 1005,5 hPa 0,0 l/m 20,3 km/h (4 Bft) N-NW 345 0 min 0 W/m 10,6 C 9,7 C 20,3 km/h (4 Bft)
27.08.2010 22:11 15,1 C 75 % 1005,5 hPa 0,0 l/m 21,1 km/h (4 Bft) N 355 0 min 0 W/m 10,7 C 9,6 C 21,1 km/h (4 Bft)
27.08.2010 22:16 15,1 C 75 % 1005,5 hPa 0,0 l/m 17,6 km/h (3 Bft) N 360 0 min 0 W/m 10,7 C 10,5 C 17,6 km/h (3 Bft)
27.08.2010 22:21 15,2 C 75 % 1005,5 hPa 0,0 l/m 18,8 km/h (3 Bft) N 350 0 min 0 W/m 10,8 C 10,3 C 18,8 km/h (3 Bft)
27.08.2010 22:26 15,2 C 76 % 1005,5 hPa 0,0 l/m 22,2 km/h (4 Bft) N 350 0 min 0 W/m 11,0 C 9,5 C 22,2 km/h (4 Bft)
27.08.2010 22:32 15,2 C 76 % 1005,5 hPa 0,0 l/m 20,0 km/h (4 Bft) N 350 0 min 0 W/m 11,0 C 10,0 C 20,0 km/h (4 Bft)
27.08.2010 22:36 15,4 C 76 % 1005,5 hPa 0,0 l/m 18,5 km/h (3 Bft) N 350 0 min 0 W/m 11,2 C 10,7 C 18,5 km/h (3 Bft)
27.08.2010 22:41 15,4 C 76 % 1005,5 hPa 0,0 l/m 26,0 km/h (4 Bft) N 355 0 min 0 W/m 11,2 C 9,0 C 26,0 km/h (4 Bft)
27.08.2010 22:46 15,5 C 76 % 1005,5 hPa 0,0 l/m 28,1 km/h (5 Bft) N-NW 335 0 min 0 W/m 11,3 C 8,7 C 28,1 km/h (5 Bft)
27.08.2010 22:51 15,5 C 76 % 1005,5 hPa 0,0 l/m 23,3 km/h (4 Bft) N 5 0 min 0 W/m 11,3 C 9,6 C 23,3 km/h (4 Bft)
27.08.2010 22:56 15,6 C 76 % 1005,5 hPa 0,0 l/m 24,1 km/h (4 Bft) N 360 0 min 0 W/m 11,4 C 9,6 C 24,1 km/h (4 Bft)
27.08.2010 23:02 15,6 C 77 % 1005,5 hPa 0,0 l/m 20,3 km/h (4 Bft) N 360 0 min 0 W/m 11,6 C 10,4 C 20,3 km/h (4 Bft)
27.08.2010 23:06 15,5 C 77 % 1005,5 hPa 0,0 l/m 25,5 km/h (4 Bft) N 360 0 min 0 W/m 11,5 C 9,2 C 25,5 km/h (4 Bft)
27.08.2010 23:11 15,6 C 77 % 1005,5 hPa 0,0 l/m 30,9 km/h (5 Bft) N 360 0 min 0 W/m 11,6 C 8,4 C 30,9 km/h (5 Bft)
27.08.2010 23:17 15,6 C 78 % 1005,5 hPa 0,0 l/m 26,6 km/h (4 Bft) N 350 0 min 0 W/m 11,8 C 9,1 C 26,6 km/h (4 Bft)
27.08.2010 23:21 15,6 C 77 % 1006,5 hPa 0,0 l/m 24,9 km/h (4 Bft) N 360 0 min 0 W/m 11,6 C 9,4 C 24,9 km/h (4 Bft)
27.08.2010 23:26 15,5 C 77 % 1005,5 hPa 0,0 l/m 25,4 km/h (4 Bft) N 5 0 min 0 W/m 11,5 C 9,2 C 25,4 km/h (4 Bft)
27.08.2010 23:31 15,5 C 77 % 1006,5 hPa 0,0 l/m 26,8 km/h (4 Bft) N 355 0 min 0 W/m 11,5 C 8,9 C 26,8 km/h (4 Bft)
27.08.2010 23:36 15,4 C 77 % 1006,5 hPa 0,0 l/m 24,9 km/h (4 Bft) N 350 0 min 0 W/m 11,4 C 9,2 C 24,9 km/h (4 Bft)
27.08.2010 23:41 15,3 C 77 % 1006,5 hPa 0,0 l/m 32,4 km/h (5 Bft) N-NW 340 0 min 0 W/m 11,3 C 7,7 C 32,4 km/h (5 Bft)
27.08.2010 23:47 15,3 C 77 % 1006,5 hPa 0,0 l/m 19,9 km/h (4 Bft) NW 320 0 min 0 W/m 11,3 C 10,2 C 19,9 km/h (4 Bft)
27.08.2010 23:51 15,4 C 78 % 1006,5 hPa 0,0 l/m 28,8 km/h (5 Bft) N 360 0 min 0 W/m 11,6 C 8,4 C 28,8 km/h (5 Bft)
27.08.2010 23:56 15,5 C 77 % 1006,5 hPa 0,0 l/m 23,2 km/h (4 Bft) N 350 0 min 0 W/m 11,5 C 9,7 C 23,2 km/h (4 Bft)
_ Min-Zeit 10:12 18:21 06:46 - 03:31 - - - - 21:12 10:01 03:31
Minimum _ 13,4 C 71 % 999,5 hPa - 1,2 km/h (1 Bft) - - - - 10,2 C 7,0 C 1,2 km/h (1 Bft)
_ Max-Zeit 18:01 12:56 23:21 07:06 23:41 - - 00:02 00:02 13:07 02:51 23:41
Maximum _ 16,4 C 89 % 1006,5 hPa 0,3 l/m 32,4 km/h
N-NW (5 Bft)
- - 0 min 0 W/m 12,8 C 15,5 C 32,4 km/h
N-NW (5 Bft)
Durchschnitt _ 14,8 C 81 % 1002,4 hPa #7,2 l/m 16,9 km/h (3 Bft) N-NO - #0 min. 0 W/m 11,6 C 10,6 C 16,9 km/h (3 Bft)
copyright by Holger Just